Pine Grove Furnace, Pennsylvania
Current Conditions -  °F | °C
As of 8:53 PM on Monday 24 Nov 2014 (Local Time) from KTHV Reporting Station
Clear Clear  
Wind Chill: 64°   Ceiling: Unl
Heat Index: 64°   Visibility: 10mi
Dew Point: 51°   Wind: 7mph
Humidity: 63%   Direction: 200°SSW
Pressure: 29.68"   Gusts: NA
Location:  40.0362°N, 77.1908°W
Report Text: KTHV 250153Z AUTO 20006KT 10SM CLR 18/11 A2968 RMK AO2 SLP050 T01780106
Loading
Personal Weather Stations






























Interactive Weather Map New forecast layout! Learn more

10-Day Weather Forecast

Advertisements
Track Severe Weather on mobile